createdAt,value
2022-12-13T00:05:02.262Z,-5.46
2022-12-13T00:10:34.095Z,-5.52
2022-12-13T00:16:05.759Z,-5.53
2022-12-13T00:21:36.868Z,-5.62
2022-12-13T00:27:08.204Z,-5.64
2022-12-13T00:32:39.457Z,-5.66
2022-12-13T00:38:11.015Z,-5.67
2022-12-13T00:43:42.994Z,-5.74
2022-12-13T00:49:14.373Z,-5.78
2022-12-13T00:54:45.787Z,-5.80
2022-12-13T01:00:17.233Z,-5.87
2022-12-13T01:11:18.879Z,-5.98
2022-12-13T01:16:50.955Z,-6.04
2022-12-13T01:22:22.697Z,-6.08
2022-12-13T01:27:54.420Z,-6.08
2022-12-13T01:33:26.066Z,-6.15
2022-12-13T01:38:59.089Z,-6.21
2022-12-13T01:44:30.127Z,-6.25
2022-12-13T01:50:02.122Z,-6.27
2022-12-13T01:55:33.823Z,-6.37
2022-12-13T02:01:05.608Z,-6.41
2022-12-13T02:06:37.549Z,-6.50
2022-12-13T02:12:09.833Z,-6.54
2022-12-13T02:17:45.302Z,-6.53
2022-12-13T02:28:43.915Z,-6.59
2022-12-13T02:34:16.219Z,-6.63
2022-12-13T02:39:48.170Z,-6.66
2022-12-13T02:45:21.095Z,-6.69
2022-12-13T02:50:57.726Z,-6.70
2022-12-13T02:56:29.644Z,-6.71
2022-12-13T03:02:10.184Z,-6.78
2022-12-13T03:07:33.291Z,-6.91
2022-12-13T03:13:05.175Z,-6.94
2022-12-13T03:18:36.818Z,-6.92
2022-12-13T03:24:08.463Z,-6.97
2022-12-13T03:29:40.179Z,-6.98
2022-12-13T03:35:22.289Z,-7.02
2022-12-13T03:40:43.936Z,-7.08
2022-12-13T03:46:15.665Z,-7.13
2022-12-13T03:51:47.309Z,-7.20
2022-12-13T03:57:19.296Z,-7.35
2022-12-13T04:02:57.001Z,-7.44
2022-12-13T04:14:00.307Z,-7.64
2022-12-13T04:19:32.099Z,-7.72
2022-12-13T04:25:03.983Z,-7.76
2022-12-13T04:30:35.728Z,-7.81
2022-12-13T04:36:07.447Z,-7.82
2022-12-13T04:41:39.332Z,-7.82
2022-12-13T04:47:11.140Z,-7.92
2022-12-13T04:52:42.818Z,-7.95
2022-12-13T04:58:18.393Z,-8.01
2022-12-13T05:03:46.428Z,-8.02
2022-12-13T05:09:18.258Z,-8.01
2022-12-13T05:20:19.798Z,-7.99
2022-12-13T05:25:52.062Z,-8.03
2022-12-13T05:31:24.505Z,-8.06
2022-12-13T05:36:56.587Z,-8.10
2022-12-13T05:42:28.407Z,-8.16
2022-12-13T05:48:00.580Z,-8.19
2022-12-13T05:53:32.545Z,-8.20
2022-12-13T05:59:04.651Z,-8.16
2022-12-13T06:04:36.352Z,-8.16
2022-12-13T06:10:10.069Z,-8.20
2022-12-13T06:15:44.649Z,-8.19
2022-12-13T06:21:12.201Z,-8.25
2022-12-13T06:26:45.124Z,-8.25
2022-12-13T06:32:16.494Z,-8.32
2022-12-13T06:37:48.441Z,-8.34
2022-12-13T06:43:19.930Z,-8.30
2022-12-13T06:48:51.766Z,-8.30
2022-12-13T06:54:23.657Z,-8.29
2022-12-13T06:59:55.684Z,-8.23
2022-12-13T07:05:27.555Z,-8.22
2022-12-13T07:10:59.743Z,-8.15
2022-12-13T07:16:32.089Z,-8.15
2022-12-13T07:22:04.071Z,-8.19
2022-12-13T07:27:36.333Z,-8.16
2022-12-13T07:33:08.611Z,-7.94
2022-12-13T07:38:40.978Z,-7.88
2022-12-13T07:44:13.023Z,-7.75
2022-12-13T07:49:45.166Z,-7.61
2022-12-13T07:55:17.274Z,-7.36
2022-12-13T08:00:49.404Z,-7.26
2022-12-13T08:06:21.296Z,-6.89
2022-12-13T08:11:53.237Z,-6.81
2022-12-13T08:17:28.423Z,-6.69
2022-12-13T08:23:02.995Z,-6.39
2022-12-13T08:27:49.347Z,-6.22
2022-12-13T08:33:22.093Z,-5.91
2022-12-13T08:38:53.815Z,-5.66
2022-12-13T08:44:25.918Z,-5.07
2022-12-13T08:50:03.058Z,-4.87
2022-12-13T08:55:32.373Z,-4.70
2022-12-13T09:01:01.505Z,-4.60
2022-12-13T09:12:03.352Z,-4.22
2022-12-13T09:17:37.000Z,-4.03
2022-12-13T09:23:08.074Z,-3.87
2022-12-13T09:28:40.381Z,-3.87
2022-12-13T09:34:12.377Z,-4.03
2022-12-13T09:39:44.147Z,-4.04
2022-12-13T09:45:22.463Z,-4.21
2022-12-13T09:50:58.269Z,-4.22
2022-12-13T09:56:19.701Z,-4.04
2022-12-13T10:01:51.928Z,-4.09
2022-12-13T10:07:23.515Z,-4.35
2022-12-13T10:12:55.275Z,-4.41
2022-12-13T10:18:27.416Z,-4.42
2022-12-13T10:24:24.113Z,-4.39
2022-12-13T10:29:31.251Z,-4.44
2022-12-13T10:35:02.839Z,-4.28
2022-12-13T10:48:24.639Z,0.00
2022-12-13T10:53:56.603Z,-3.47
2022-12-13T10:59:27.718Z,-3.44
2022-12-13T11:04:59.676Z,-3.28
2022-12-13T11:10:31.330Z,-3.31
2022-12-13T11:16:03.185Z,-3.44
2022-12-13T11:21:35.031Z,-3.52
2022-12-13T11:27:06.803Z,-3.54
2022-12-13T11:32:38.169Z,-3.56
2022-12-13T11:38:10.071Z,-3.55
2022-12-13T11:46:03.109Z,-3.58
2022-12-13T11:51:34.692Z,-3.55
2022-12-13T11:57:06.345Z,-3.51
2022-12-13T12:02:38.393Z,-3.47
2022-12-13T12:19:11.780Z,-3.20
2022-12-13T12:24:43.102Z,-3.01
2022-12-13T12:30:23.713Z,-2.97
2022-12-13T12:35:46.807Z,-2.97
2022-12-13T12:41:18.159Z,-3.01
2022-12-13T12:47:18.956Z,-3.07
2022-12-13T12:52:22.085Z,-3.16
2022-12-13T12:57:53.929Z,-3.00
2022-12-13T13:03:26.258Z,-2.96
2022-12-13T13:14:27.051Z,-2.72
2022-12-13T13:20:09.592Z,-2.58
2022-12-13T13:25:31.016Z,-2.68
2022-12-13T13:36:32.352Z,-2.50
2022-12-13T13:42:04.342Z,-2.40
2022-12-13T13:47:36.073Z,-2.26
2022-12-13T13:53:07.743Z,-2.28
2022-12-13T13:58:39.284Z,-2.31
2022-12-13T14:04:11.129Z,-2.40
2022-12-13T14:09:43.032Z,-2.50
2022-12-13T14:15:14.704Z,-2.44
2022-12-13T14:20:48.006Z,-2.40
2022-12-13T14:26:19.652Z,-2.41
2022-12-13T14:31:51.451Z,-2.41
2022-12-13T14:37:23.189Z,-2.37
2022-12-13T14:42:54.749Z,-2.51
2022-12-13T14:48:28.593Z,-2.58
2022-12-13T14:53:58.007Z,-2.66
2022-12-13T14:59:29.893Z,-2.72
2022-12-13T15:05:01.603Z,-2.71
2022-12-13T15:10:33.406Z,-2.85
2022-12-13T15:16:10.347Z,-2.90
2022-12-13T15:21:37.102Z,-3.04
2022-12-13T15:27:09.583Z,-3.07
2022-12-13T15:32:41.341Z,-3.13
2022-12-13T15:38:13.149Z,-3.16
2022-12-13T15:43:45.239Z,-3.20
2022-12-13T15:54:46.620Z,-3.27
2022-12-13T16:00:18.604Z,-3.31
2022-12-13T16:05:50.712Z,-3.32
2022-12-13T16:11:22.393Z,-3.32
2022-12-13T16:16:55.309Z,-3.38
2022-12-13T16:22:28.158Z,-3.39
2022-12-13T16:28:00.254Z,-3.41
2022-12-13T16:33:32.791Z,-3.45
2022-12-13T16:39:03.806Z,-3.41
2022-12-13T16:44:36.030Z,-3.49
2022-12-13T16:50:07.429Z,-3.52
2022-12-13T16:55:39.597Z,-3.55
2022-12-13T17:01:11.345Z,-3.58
2022-12-13T17:06:43.185Z,-3.54
2022-12-13T17:12:15.221Z,-3.56
2022-12-13T17:17:47.278Z,-3.58
2022-12-13T17:23:19.179Z,-3.60
2022-12-13T17:28:51.249Z,-3.62
2022-12-13T17:34:23.070Z,-3.62
2022-12-13T17:39:54.846Z,-3.63
2022-12-13T17:45:26.433Z,-3.66
2022-12-13T17:50:58.519Z,-3.71
2022-12-13T17:56:30.330Z,-3.75
2022-12-13T18:02:02.175Z,-3.78
2022-12-13T18:07:33.910Z,-3.86
2022-12-13T18:13:05.483Z,-3.87
2022-12-13T18:18:37.597Z,-3.87
2022-12-13T18:24:10.083Z,-3.84
2022-12-13T18:29:48.003Z,-3.83
2022-12-13T18:35:19.938Z,-3.84
2022-12-13T18:40:52.115Z,-3.83
2022-12-13T18:46:23.913Z,-3.79
2022-12-13T18:51:55.821Z,-3.84
2022-12-13T18:57:27.280Z,-3.87
2022-12-13T19:02:59.337Z,-3.86
2022-12-13T19:08:31.207Z,-3.83
2022-12-13T19:14:03.368Z,-3.83
2022-12-13T19:19:35.660Z,-3.76
2022-12-13T19:25:07.394Z,-3.73
2022-12-13T19:30:39.275Z,-3.71
2022-12-13T19:36:10.696Z,-3.72
2022-12-13T19:41:42.402Z,-3.69
2022-12-13T19:47:13.691Z,-3.66
2022-12-13T19:52:45.475Z,-3.60
2022-12-13T19:58:17.397Z,-3.58
2022-12-13T20:03:49.292Z,-3.59
2022-12-13T20:09:21.296Z,-3.60
2022-12-13T20:14:53.040Z,-3.62
2022-12-13T20:20:31.488Z,-3.65
2022-12-13T20:25:56.561Z,-3.66
2022-12-13T20:31:28.522Z,-3.69
2022-12-13T20:39:21.532Z,-3.62
2022-12-13T20:44:53.378Z,-3.62
2022-12-13T20:50:25.475Z,-3.59
2022-12-13T20:55:56.791Z,-3.62
2022-12-13T21:01:28.608Z,-3.69
2022-12-13T21:07:00.495Z,-3.75
2022-12-13T21:12:31.934Z,-3.79
2022-12-13T21:18:03.774Z,-3.82
2022-12-13T21:23:35.800Z,-3.83
2022-12-13T21:29:07.238Z,-3.80
2022-12-13T21:34:39.210Z,-3.80
2022-12-13T21:40:11.395Z,-3.82
2022-12-13T21:45:43.541Z,-3.79
2022-12-13T21:51:15.245Z,-3.75
2022-12-13T21:56:46.866Z,-3.68
2022-12-13T22:02:19.827Z,-3.60
2022-12-13T22:07:51.520Z,-3.60
2022-12-13T22:13:23.195Z,-3.55
2022-12-13T22:18:55.169Z,-3.54
2022-12-13T22:24:26.663Z,-3.54
2022-12-13T22:29:58.630Z,-3.55
2022-12-13T22:46:29.297Z,-3.17
2022-12-13T22:52:00.960Z,-3.13
2022-12-13T22:57:33.172Z,-3.09
2022-12-13T23:03:05.309Z,-3.01
2022-12-13T23:14:06.274Z,-2.94
2022-12-13T23:19:50.902Z,-2.88
2022-12-13T23:25:10.222Z,-2.85
2022-12-13T23:30:42.291Z,-2.83
2022-12-13T23:36:14.399Z,-2.75
2022-12-13T23:41:45.931Z,-2.69
2022-12-13T23:52:47.297Z,-2.64
2022-12-13T23:58:18.951Z,-2.61
